Time;durP1;ratioP1;P1;durP2;ratioP2;P2;SDS_P1;SDS_P2;PMS_P1;PMS_P2;Temp;Humidity;BMP_temperature;BMP_pressure;BME280_temperature;BME280_humidity;BME280_pressure;Samples;Min_cycle;Max_cycle;Signal;HPM_P1;HPM_P2
2022/04/30 00:00:29;;;;;;;9.40;5.87;;;;;;;5.42;66.45;101490.69;1728211;82;21935;-76
2022/04/30 00:02:54;;;;;;;9.10;5.80;;;;;;;5.42;66.54;101496.33;1729805;82;21079;-76
2022/04/30 00:05:21;;;;;;;9.63;5.80;;;;;;;5.39;66.58;101490.69;1708396;82;20997;-80
2022/04/30 00:07:48;;;;;;;8.97;6.10;;;;;;;5.38;66.72;101487.66;1727947;82;21007;-77
2022/04/30 00:10:15;;;;;;;10.70;6.23;;;;;;;5.36;66.80;101487.64;1724966;82;21429;-78
2022/04/30 00:12:42;;;;;;;14.87;6.23;;;;;;;5.35;66.99;101488.52;1727568;82;21462;-77
2022/04/30 00:15:09;;;;;;;12.30;6.80;;;;;;;5.35;67.01;101485.92;1728025;82;21493;-77
2022/04/30 00:17:36;;;;;;;11.67;7.17;;;;;;;5.35;67.23;101483.76;1725891;82;21134;-77
2022/04/30 00:20:06;;;;;;;11.33;7.03;;;;;;;5.36;67.37;101481.58;1728628;82;21091;-77
2022/04/30 00:22:33;;;;;;;15.20;7.40;;;;;;;5.38;67.54;101483.77;1720218;82;21033;-77
2022/04/30 00:25:01;;;;;;;17.53;7.33;;;;;;;5.37;67.55;101478.97;1727352;82;22775;-77
2022/04/30 00:27:29;;;;;;;13.37;9.10;;;;;;;5.34;67.58;101484.17;1726049;82;20976;-77
2022/04/30 00:29:55;;;;;;;15.47;9.37;;;;;;;5.34;67.84;101484.61;1730281;82;21005;-77
2022/04/30 00:32:23;;;;;;;11.90;8.17;;;;;;;5.37;68.06;101480.70;1728862;82;21493;-77
2022/04/30 00:34:50;;;;;;;13.67;7.77;;;;;;;5.35;67.82;101478.56;1729857;82;21096;-77
2022/04/30 00:37:17;;;;;;;13.10;8.50;;;;;;;5.31;67.88;101479.41;1715965;82;21128;-78
2022/04/30 00:39:44;;;;;;;13.10;7.87;;;;;;;5.28;67.93;101483.30;1725827;82;21028;-77
2022/04/30 00:42:14;;;;;;;15.80;9.03;;;;;;;5.22;68.00;101484.59;1724242;82;21483;-78
2022/04/30 00:44:43;;;;;;;16.15;9.50;;;;;;;5.19;68.13;101486.75;1725573;82;21048;-76
2022/04/30 00:47:18;;;;;;;20.30;9.57;;;;;;;5.17;68.21;101488.91;1725546;82;21517;-77
2022/04/30 00:49:46;;;;;;;14.67;8.93;;;;;;;5.14;68.24;101488.02;1727638;82;22044;-76
2022/04/30 00:52:16;;;;;;;13.67;8.60;;;;;;;5.12;68.37;101489.75;1728824;82;20917;-77
2022/04/30 00:54:53;;;;;;;12.43;8.15;;;;;;;5.11;68.46;101485.86;1733298;82;20960;-77
2022/04/30 00:57:24;;;;;;;13.47;8.50;;;;;;;5.07;68.60;101484.99;1728989;82;21002;-77
2022/04/30 01:00:01;;;;;;;13.43;9.13;;;;;;;5.04;68.72;101481.06;1730557;82;21052;-77
2022/04/30 01:02:30;;;;;;;16.30;9.27;;;;;;;5.02;68.83;101483.24;1720099;82;21055;-77
2022/04/30 01:05:15;;;;;;;14.57;9.10;;;;;;;4.99;68.98;101482.80;1717597;82;21050;-77
2022/04/30 01:07:42;;;;;;;16.63;9.87;;;;;;;4.95;69.08;101479.73;1726890;82;21069;-78
2022/04/30 01:10:09;;;;;;;16.10;9.60;;;;;;;4.92;69.13;101480.59;1698100;84;21060;-77
2022/04/30 01:12:37;;;;;;;18.13;10.83;;;;;;;4.92;69.31;101479.30;1685133;83;21059;-77
2022/04/30 01:15:06;;;;;;;16.17;9.70;;;;;;;4.91;69.43;101478.87;1725814;81;22014;-77
2022/04/30 01:17:35;;;;;;;14.10;9.23;;;;;;;4.90;69.41;101477.55;1722063;81;21020;-77
2022/04/30 01:20:04;;;;;;;13.40;8.83;;;;;;;4.88;69.53;101476.27;1721785;82;22083;-78
2022/04/30 01:22:36;;;;;;;13.93;8.90;;;;;;;4.87;69.51;101481.44;1683874;84;21103;-78
2022/04/30 01:25:04;;;;;;;15.07;9.70;;;;;;;4.82;69.54;101478.84;1690409;82;21536;-77
2022/04/30 01:27:32;;;;;;;12.70;8.57;;;;;;;4.80;69.70;101475.37;1659470;85;21573;-77
2022/04/30 01:30:04;;;;;;;13.53;8.70;;;;;;;4.78;69.67;101472.33;1682052;84;21106;-77
2022/04/30 01:38:06;;;;;;;13.17;8.57;;;;;;;4.75;70.02;101471.88;1727178;82;21004;-77
2022/04/30 01:40:34;;;;;;;14.10;8.83;;;;;;;4.73;70.16;101469.70;1691816;83;21118;-78
2022/04/30 01:43:02;;;;;;;15.20;8.93;;;;;;;4.71;70.17;101475.30;1732136;82;21505;-77
2022/04/30 01:45:30;;;;;;;17.03;9.37;;;;;;;4.69;70.28;101467.97;1695812;83;21022;-78
2022/04/30 01:47:59;;;;;;;16.13;8.70;;;;;;;4.68;70.34;101471.41;1663201;85;21542;-77
2022/04/30 01:50:26;;;;;;;14.67;9.10;;;;;;;4.66;70.37;101470.55;1671285;85;21593;-77
2022/04/30 01:52:53;;;;;;;15.90;9.50;;;;;;;4.64;70.51;101469.67;1666940;85;21134;-78
2022/04/30 01:55:21;;;;;;;15.63;9.33;;;;;;;4.63;70.57;101472.70;1668335;84;21512;-78
2022/04/30 01:57:49;;;;;;;12.87;8.97;;;;;;;4.61;70.61;101466.63;1654678;84;21469;-77
2022/04/30 02:00:20;;;;;;;12.60;8.17;;;;;;;4.60;70.71;101462.70;1670278;84;21048;-78
2022/04/30 02:02:49;;;;;;;14.87;8.13;;;;;;;4.58;70.71;101459.26;1726134;81;21339;-78
2022/04/30 02:05:19;;;;;;;15.30;8.60;;;;;;;4.58;70.81;101461.86;1700187;84;21080;-77
2022/04/30 02:07:51;;;;;;;18.12;7.95;;;;;;;4.56;70.87;101461.84;1661920;85;21103;-77
2022/04/30 02:10:19;;;;;;;14.73;8.10;;;;;;;4.53;70.91;101462.26;1729282;82;21490;-78
2022/04/30 02:12:48;;;;;;;11.60;7.27;;;;;;;4.54;71.04;101460.09;1723934;82;20934;-78
2022/04/30 02:15:16;;;;;;;14.20;7.50;;;;;;;4.54;71.04;101463.55;1726621;82;21508;-78
2022/04/30 02:17:46;;;;;;;13.27;7.60;;;;;;;4.54;71.05;101460.95;1690369;83;21588;-77
2022/04/30 02:20:33;;;;;;;;;;;;;;;4.55;71.14;101454.05;1693296;84;21001;-77
2022/04/30 02:23:02;;;;;;;11.83;7.30;;;;;;;4.55;71.47;101455.36;1691993;84;20272;-78
2022/04/30 02:25:30;;;;;;;;;;;;;;;4.58;71.51;101452.77;1686027;85;21048;-77
2022/04/30 02:28:04;;;;;;;10.80;6.60;;;;;;;4.56;71.46;101455.34;1683136;84;21506;-78
2022/04/30 02:30:29;;;;;;;13.70;7.77;;;;;;;4.52;71.22;101456.20;1735570;82;21282;-78
2022/04/30 02:33:06;;;;;;;13.03;6.90;;;;;;;4.47;71.18;101447.09;1727675;82;21079;-77
2022/04/30 02:35:34;;;;;;;14.90;7.63;;;;;;;4.45;71.23;101442.31;1728985;82;21009;-77
2022/04/30 02:38:08;;;;;;;12.50;8.07;;;;;;;4.42;71.29;101442.30;1728283;82;21016;-78
2022/04/30 02:40:34;;;;;;;11.57;7.40;;;;;;;4.39;71.32;101438.39;1726735;81;21499;-77
2022/04/30 02:43:10;;;;;;;12.20;7.97;;;;;;;4.39;71.49;101434.50;1716488;82;21196;-77
2022/04/30 02:45:41;;;;;;;16.33;9.43;;;;;;;4.39;71.55;101435.80;1724773;81;20969;-77
2022/04/30 02:48:09;;;;;;;;;;;;;;;4.40;71.75;101432.33;1727958;82;21036;-77
2022/04/30 02:50:37;;;;;;;13.00;7.10;;;;;;;4.41;71.98;101428.03;1727959;82;20938;-77
2022/04/30 02:53:05;;;;;;;15.03;7.60;;;;;;;4.42;71.98;101436.24;1732712;82;21111;-77
2022/04/30 02:55:32;;;;;;;13.70;8.33;;;;;;;4.42;71.79;101432.34;1729491;81;21891;-78
2022/04/30 03:00:48;;;;;;;13.83;8.50;;;;;;;4.41;71.87;101430.63;1735212;82;20981;-77
2022/04/30 03:03:22;;;;;;;13.80;8.03;;;;;;;4.38;71.91;101425.39;1729438;82;21111;-77
2022/04/30 03:05:50;;;;;;;16.33;8.70;;;;;;;4.37;72.01;101422.38;1725155;82;21000;-77
2022/04/30 03:08:21;;;;;;;16.37;9.37;;;;;;;4.35;71.95;101423.67;1730690;82;21474;-77
2022/04/30 03:10:54;;;;;;;14.80;8.58;;;;;;;4.33;71.95;101425.83;1725861;82;21420;-77
2022/04/30 03:13:24;;;;;;;12.80;9.00;;;;;;;4.33;72.04;101424.09;1726822;82;21044;-78
2022/04/30 03:15:54;;;;;;;16.42;8.98;;;;;;;4.32;72.09;101420.17;1693251;83;21040;-77
2022/04/30 03:23:51;;;;;;;15.00;9.90;;;;;;;4.35;72.40;101411.10;1668221;85;21021;-77
2022/04/30 03:26:20;;;;;;;15.80;9.57;;;;;;;4.37;72.50;101410.69;1659940;84;21484;-74
2022/04/30 03:28:47;;;;;;;15.63;9.30;;;;;;;4.41;72.62;101416.34;1671950;84;21027;-76
2022/04/30 03:31:16;;;;;;;13.80;9.13;;;;;;;4.41;72.63;101412.45;1660972;85;21040;-75
2022/04/30 03:33:48;;;;;;;12.63;8.83;;;;;;;4.40;72.49;101415.89;1697518;84;21179;-79
2022/04/30 03:36:15;;;;;;;13.67;8.97;;;;;;;4.38;72.46;101418.90;1690206;84;21022;-76
2022/04/30 03:38:40;;;;;;;17.30;9.00;;;;;;;4.34;72.49;101420.63;1686961;84;21008;-84
2022/04/30 03:41:07;;;;;;;14.17;9.10;;;;;;;4.34;72.50;101423.22;1690703;84;21070;-83
2022/04/30 03:43:34;;;;;;;13.17;8.73;;;;;;;4.33;72.54;101420.63;1686301;83;21492;-75
2022/04/30 03:46:01;;;;;;;12.97;8.20;;;;;;;4.28;72.61;101416.70;1676792;85;20996;-77
2022/04/30 03:48:29;;;;;;;14.83;8.77;;;;;;;4.29;72.75;101413.67;1728942;82;21479;-77
2022/04/30 03:50:57;;;;;;;15.33;8.57;;;;;;;4.29;72.88;101417.57;1697140;84;21490;-76
2022/04/30 03:53:24;;;;;;;11.57;7.90;;;;;;;4.32;73.16;101417.14;1663981;84;21659;-77
2022/04/30 03:55:52;;;;;;;13.40;8.10;;;;;;;4.34;72.99;101411.98;1653106;85;21790;-76
2022/04/30 03:58:19;;;;;;;14.37;8.37;;;;;;;4.33;73.03;101404.62;1678697;84;21137;-77
2022/04/30 04:00:46;;;;;;;14.20;8.30;;;;;;;4.32;72.98;101405.47;1698489;84;20933;-79
2022/04/30 04:03:14;;;;;;;11.90;8.13;;;;;;;4.32;73.05;101405.91;1707787;82;21512;-79
2022/04/30 04:05:41;;;;;;;13.60;8.27;;;;;;;4.32;73.09;101404.61;1730774;82;21045;-77
2022/04/30 04:08:11;;;;;;;14.77;8.67;;;;;;;4.34;73.20;101407.65;1728470;82;21045;-77
2022/04/30 04:10:37;;;;;;;11.87;8.60;;;;;;;4.36;73.38;101406.37;1729820;82;22019;-78
2022/04/30 04:18:37;;;;;;;12.90;8.90;;;;;;;4.43;73.44;101406.81;1723717;82;21310;-79
2022/04/30 04:21:04;;;;;;;14.60;9.23;;;;;;;4.43;73.44;101405.52;1729589;82;21020;-80
2022/04/30 04:25:58;;;;;;;13.73;9.20;;;;;;;4.45;73.49;101411.59;1722528;82;21561;-77
2022/04/30 04:26:00;;;;;;;13.47;8.23;;;;;;;4.44;73.58;101410.73;1724466;82;22000;-79
2022/04/30 04:28:29;;;;;;;13.23;9.23;;;;;;;4.47;73.70;101412.47;1733289;82;21506;-77
2022/04/30 04:30:57;;;;;;;15.33;9.23;;;;;;;4.53;73.84;101410.33;1726704;82;21031;-78
2022/04/30 04:33:24;;;;;;;16.47;8.97;;;;;;;4.57;73.84;101406.87;1722279;82;21481;-78
2022/04/30 04:35:51;;;;;;;13.60;8.57;;;;;;;4.58;73.83;101403.44;1724714;82;21092;-80
2022/04/30 04:38:19;;;;;;;14.00;8.27;;;;;;;4.61;73.81;101408.20;1728836;82;21111;-77
2022/04/30 04:40:46;;;;;;;14.67;9.03;;;;;;;4.67;73.98;101403.02;1726773;82;21036;-77
2022/04/30 04:43:13;;;;;;;15.77;9.40;;;;;;;4.73;73.99;101406.06;1730055;82;21484;-77
2022/04/30 04:45:40;;;;;;;13.97;8.43;;;;;;;4.78;74.06;101404.36;1726998;82;21042;-79
2022/04/30 04:48:09;;;;;;;14.47;8.63;;;;;;;4.83;73.96;101405.67;1729864;82;21483;-77
2022/04/30 04:50:37;;;;;;;14.53;8.53;;;;;;;4.89;73.95;101404.39;1731212;82;20994;-78
2022/04/30 04:53:05;;;;;;;17.60;8.73;;;;;;;4.96;73.91;101399.66;1714525;82;21035;-78
2022/04/30 04:55:32;;;;;;;11.17;8.10;;;;;;;5.01;73.77;101399.64;1729566;82;21088;-77
2022/04/30 04:57:59;;;;;;;12.13;8.20;;;;;;;5.04;73.83;101401.80;1724435;82;21556;-78
2022/04/30 05:00:27;;;;;;;14.07;8.73;;;;;;;5.08;73.94;101399.66;1728691;82;21107;-77
2022/04/30 05:02:54;;;;;;;14.13;8.20;;;;;;;5.16;74.16;101397.08;1721669;82;21028;-79
2022/04/30 05:05:21;;;;;;;15.27;8.50;;;;;;;5.25;74.27;101400.98;1726433;82;21023;-77
2022/04/30 05:07:48;;;;;;;13.10;8.63;;;;;;;5.30;74.22;101403.16;1731948;82;21107;-80
2022/04/30 05:10:15;;;;;;;10.93;8.73;;;;;;;5.35;74.20;101404.03;1724089;82;21514;-78
2022/04/30 05:12:45;;;;;;;12.87;9.47;;;;;;;5.41;74.25;101406.20;1729271;82;21156;-77
2022/04/30 05:15:12;;;;;;;15.10;8.97;;;;;;;5.46;74.35;101401.44;1721159;82;21462;-80
2022/04/30 05:17:39;;;;;;;13.63;8.47;;;;;;;5.53;74.34;101399.69;1724655;82;20954;-77
2022/04/30 05:20:07;;;;;;;14.00;8.77;;;;;;;5.58;74.33;101401.42;1726889;82;21032;-78
2022/04/30 05:22:34;;;;;;;12.73;8.97;;;;;;;5.65;74.37;101405.31;1718693;82;21466;-77
2022/04/30 05:25:02;;;;;;;15.43;8.93;;;;;;;5.71;74.28;101401.39;1723501;82;21131;-79
2022/04/30 05:27:29;;;;;;;15.83;9.50;;;;;;;5.80;74.27;101406.17;1716997;82;21027;-79
2022/04/30 05:29:56;;;;;;;14.13;9.57;;;;;;;5.89;74.17;101409.63;1724541;82;21032;-78
2022/04/30 05:32:23;;;;;;;13.80;9.07;;;;;;;5.96;73.99;101410.95;1723888;82;21029;-77
2022/04/30 05:34:50;;;;;;;13.47;9.43;;;;;;;6.07;73.88;101407.44;1716906;82;21505;-79
2022/04/30 05:37:17;;;;;;;15.43;10.40;;;;;;;6.17;73.97;101412.63;1731515;82;21145;-77
2022/04/30 05:39:44;;;;;;;15.87;10.50;;;;;;;6.29;73.99;101408.25;1730717;82;21052;-78
2022/04/30 05:42:11;;;;;;;17.57;9.77;;;;;;;6.37;73.91;101407.80;1729807;82;21036;-79
2022/04/30 05:44:38;;;;;;;15.50;10.17;;;;;;;6.47;74.00;101406.45;1725983;82;21319;-77
2022/04/30 05:47:05;;;;;;;15.83;10.50;;;;;;;6.57;73.65;101413.81;1718360;82;21574;-77
2022/04/30 05:49:32;;;;;;;14.60;10.13;;;;;;;6.68;73.60;101411.16;1720426;82;21139;-77
2022/04/30 05:51:59;;;;;;;14.17;9.90;;;;;;;6.80;73.36;101411.08;1724278;82;21012;-77
2022/04/30 05:54:28;;;;;;;16.13;10.23;;;;;;;6.92;73.24;101411.00;1726828;82;21004;-78
2022/04/30 05:56:55;;;;;;;15.00;10.13;;;;;;;7.04;73.09;101412.69;1719867;82;21041;-81
2022/04/30 05:59:22;;;;;;;16.20;10.03;;;;;;;7.16;72.78;101415.66;1709442;82;21470;-78
2022/04/30 06:01:49;;;;;;;15.93;9.50;;;;;;;7.29;72.73;101414.70;1732391;82;21797;-79
2022/04/30 06:04:16;;;;;;;15.23;9.87;;;;;;;7.42;72.77;101419.81;1730354;82;20986;-77
2022/04/30 06:06:44;;;;;;;15.87;10.20;;;;;;;7.56;72.47;101407.52;1727038;82;21110;-80
2022/04/30 06:09:11;;;;;;;15.53;11.00;;;;;;;7.70;72.33;101410.00;1730521;82;21061;-74
2022/04/30 06:11:38;;;;;;;19.53;11.83;;;;;;;7.83;72.50;101415.09;1725713;82;21091;-74
2022/04/30 06:14:05;;;;;;;21.10;13.03;;;;;;;7.96;72.12;101408.47;1730052;82;21081;-74
2022/04/30 06:16:32;;;;;;;15.10;11.13;;;;;;;8.09;71.96;101411.80;1730859;82;21080;-76
2022/04/30 06:18:59;;;;;;;16.90;11.10;;;;;;;8.25;72.19;101411.61;1731228;82;21020;-75
2022/04/30 06:21:26;;;;;;;18.17;11.43;;;;;;;8.40;72.02;101408.45;1728409;82;21128;-80
2022/04/30 06:23:53;;;;;;;15.97;10.57;;;;;;;8.53;71.67;101420.91;1730897;82;20985;-75
2022/04/30 06:26:20;;;;;;;15.60;10.73;;;;;;;8.62;71.13;101417.76;1730910;82;21087;-76
2022/04/30 06:28:47;;;;;;;17.80;12.13;;;;;;;8.73;70.74;101418.93;1723690;82;21075;-81
2022/04/30 06:31:14;;;;;;;21.20;13.27;;;;;;;8.84;70.37;101414.84;1725800;82;21044;-77
2022/04/30 06:33:41;;;;;;;18.00;11.53;;;;;;;8.94;69.85;101417.75;1719283;82;21055;-84
2022/04/30 06:36:08;;;;;;;15.23;9.77;;;;;;;9.04;69.56;101419.81;1718656;82;21560;-76
2022/04/30 06:38:36;;;;;;;13.37;9.60;;;;;;;9.15;69.88;101417.91;1699280;82;21092;-79
2022/04/30 06:41:04;;;;;;;15.43;10.03;;;;;;;9.27;69.70;101422.94;1689200;82;21107;-79
2022/04/30 06:43:31;;;;;;;16.40;10.30;;;;;;;9.38;69.40;101424.94;1689528;82;21072;-77
2022/04/30 06:45:58;;;;;;;15.87;9.47;;;;;;;9.49;69.10;101426.53;1725505;82;21603;-77
2022/04/30 06:48:25;;;;;;;14.80;9.67;;;;;;;9.57;68.74;101431.20;1725547;82;21001;-78
2022/04/30 06:50:52;;;;;;;14.80;9.10;;;;;;;9.66;68.37;101426.25;1725028;82;21379;-77
2022/04/30 06:58:59;;;;;;;13.17;8.60;;;;;;;9.97;67.32;101427.43;1727137;82;21039;-77
2022/04/30 07:01:38;;;;;;;14.50;9.40;;;;;;;10.03;66.78;101431.28;1723333;82;21482;-78
2022/04/30 07:04:04;;;;;;;14.10;9.03;;;;;;;10.13;66.67;101425.86;1719724;82;21511;-78
2022/04/30 07:06:33;;;;;;;15.97;8.57;;;;;;;10.22;66.43;101424.36;1729857;82;21020;-77
2022/04/30 07:09:03;;;;;;;17.83;9.53;;;;;;;10.30;66.07;101424.25;1702515;82;21071;-78
2022/04/30 07:11:30;;;;;;;;;;;;;;;10.36;65.86;101430.67;1672042;83;21059;-77
2022/04/30 07:13:58;;;;;;;12.77;7.73;;;;;;;10.43;65.41;101430.53;1705352;83;20594;-77
2022/04/30 07:16:25;;;;;;;13.73;9.73;;;;;;;10.54;65.38;101432.08;1693676;83;22116;-77
2022/04/30 07:18:52;;;;;;;12.90;9.20;;;;;;;10.64;65.25;101430.98;1695833;84;21012;-76
2022/04/30 07:21:20;;;;;;;15.53;9.50;;;;;;;10.74;65.24;101425.11;1697519;83;21599;-77
2022/04/30 07:23:47;;;;;;;15.13;9.23;;;;;;;10.84;65.12;101430.13;1692713;83;21555;-78
2022/04/30 07:26:16;;;;;;;14.93;9.57;;;;;;;10.97;65.03;101429.39;1696507;83;21295;-76
2022/04/30 07:28:46;;;;;;;16.97;9.80;;;;;;;11.10;64.81;101427.37;1691831;84;21118;-81
2022/04/30 07:31:14;;;;;;;14.03;9.90;;;;;;;11.22;64.71;101428.38;1700430;83;21009;-77
2022/04/30 07:33:54;;;;;;;14.33;9.10;;;;;;;11.30;64.37;101431.69;1705119;82;21033;-79
2022/04/30 07:36:21;;;;;;;23.03;15.43;;;;;;;11.42;64.31;101430.98;1705520;83;21464;-78
2022/04/30 07:38:57;;;;;;;16.77;10.93;;;;;;;11.54;63.80;101428.94;1673760;85;21120;-78
2022/04/30 07:41:24;;;;;;;21.20;12.40;;;;;;;11.69;63.72;101432.94;1720534;82;21960;-78
2022/04/30 07:43:51;;;;;;;14.10;9.83;;;;;;;11.87;63.64;101435.59;1727908;82;21052;-77
2022/04/30 07:46:18;;;;;;;14.53;8.93;;;;;;;11.99;63.37;101427.38;1719470;82;21540;-76
2022/04/30 07:48:45;;;;;;;14.60;9.53;;;;;;;12.11;62.81;101431.89;1696842;82;21588;-76
2022/04/30 07:51:18;;;;;;;14.60;9.73;;;;;;;12.22;62.22;101425.89;1704745;82;21048;-75
2022/04/30 07:53:44;;;;;;;15.90;9.45;;;;;;;12.35;61.79;101429.05;1727604;82;21148;-78
2022/04/30 07:56:12;;;;;;;15.25;9.75;;;;;;;12.48;61.25;101427.81;1722891;82;21064;-77
2022/04/30 07:58:39;;;;;;;13.62;9.38;;;;;;;12.57;60.70;101424.05;1721756;82;21026;-76
2022/04/30 08:01:06;;;;;;;15.60;9.88;;;;;;;12.68;60.42;101421.50;1709803;82;21041;-83
2022/04/30 08:03:34;;;;;;;12.98;9.38;;;;;;;12.84;60.42;101421.06;1694596;83;21099;-80
2022/04/30 08:06:01;;;;;;;15.93;10.30;;;;;;;12.95;60.43;101425.09;1700309;83;21942;-76
2022/04/30 08:08:28;;;;;;;13.35;9.13;;;;;;;13.11;60.58;101425.48;1695244;84;21111;-80
2022/04/30 08:10:55;;;;;;;17.27;10.15;;;;;;;13.30;60.03;101430.18;1711301;82;21052;-79
2022/04/30 08:13:22;;;;;;;16.48;9.65;;;;;;;13.46;59.88;101428.78;1697914;82;21059;-79
2022/04/30 08:15:49;;;;;;;16.20;10.32;;;;;;;13.57;59.38;101429.75;1701767;82;21338;-75
2022/04/30 08:18:16;;;;;;;12.98;9.05;;;;;;;13.71;58.73;101429.29;1730635;82;21142;-77
2022/04/30 08:20:43;;;;;;;14.28;8.95;;;;;;;13.88;58.38;101430.03;1727437;82;20924;-75
2022/04/30 08:23:10;;;;;;;14.20;8.83;;;;;;;14.00;58.01;101429.63;1729464;82;21574;-79
2022/04/30 08:25:38;;;;;;;15.15;8.45;;;;;;;14.17;57.69;101429.88;1725256;82;21015;-77
2022/04/30 08:28:06;;;;;;;13.10;9.00;;;;;;;14.33;57.08;101421.41;1726245;82;21063;-82
2022/04/30 08:30:33;;;;;;;11.68;8.55;;;;;;;14.49;56.89;101420.81;1710601;82;21888;-75
2022/04/30 08:33:00;;;;;;;12.60;8.58;;;;;;;14.66;56.83;101419.33;1701199;84;21111;-76
2022/04/30 08:35:27;;;;;;;14.00;8.58;;;;;;;14.82;56.57;101423.58;1667138;85;21026;-76
2022/04/30 08:37:54;;;;;;;14.10;8.43;;;;;;;14.95;56.50;101425.68;1674073;84;21593;-77
2022/04/30 08:40:22;;;;;;;11.48;7.97;;;;;;;15.08;56.35;101426.08;1672673;85;21059;-82
2022/04/30 08:42:49;;;;;;;13.95;8.70;;;;;;;15.22;55.18;101420.70;1660094;85;21187;-76
2022/04/30 08:45:16;;;;;;;12.73;8.23;;;;;;;15.31;54.54;101422.97;1703238;82;21059;-77
2022/04/30 08:47:47;;;;;;;14.73;7.70;;;;;;;15.45;54.02;101422.41;1723401;82;21500;-78
2022/04/30 08:50:15;;;;;;;12.25;7.67;;;;;;;15.57;53.47;101413.95;1720462;82;20898;-76
2022/04/30 08:52:42;;;;;;;12.00;8.35;;;;;;;15.71;52.99;101416.06;1699618;83;21092;-77
2022/04/30 08:55:11;;;;;;;12.00;7.33;;;;;;;15.89;53.02;101413.11;1693414;83;21082;-77
2022/04/30 08:57:38;;;;;;;11.45;7.47;;;;;;;16.07;52.30;101418.90;1709866;82;21453;-79
2022/04/30 09:00:07;;;;;;;12.82;7.85;;;;;;;16.18;51.72;101409.17;1707967;82;21042;-78
2022/04/30 09:02:34;;;;;;;14.10;8.68;;;;;;;16.31;51.30;101414.80;1709958;82;21032;-82
2022/04/30 09:05:02;;;;;;;11.43;7.75;;;;;;;16.41;50.88;101412.14;1711401;82;21011;-79
2022/04/30 09:07:28;;;;;;;10.93;7.90;;;;;;;16.52;50.02;101411.19;1735455;82;22000;-79
2022/04/30 09:10:02;;;;;;;10.05;6.95;;;;;;;16.59;49.76;101398.52;1734144;82;20982;-77
2022/04/30 09:12:31;;;;;;;12.18;8.30;;;;;;;16.68;48.85;101406.91;1713576;82;21517;-79
2022/04/30 09:14:59;;;;;;;13.62;8.75;;;;;;;16.77;48.41;101403.47;1708822;83;21032;-79
2022/04/30 09:17:27;;;;;;;12.25;8.93;;;;;;;16.80;48.01;101399.34;1710963;82;21160;-78
2022/04/30 09:19:57;;;;;;;12.68;8.00;;;;;;;16.91;48.02;101403.20;1728029;82;21131;-77
2022/04/30 09:22:38;;;;;;;15.25;7.87;;;;;;;17.06;47.54;101401.59;1726182;82;26847;-79
2022/04/30 09:25:08;;;;;;;12.25;7.35;;;;;;;17.15;47.66;101405.59;1683350;82;21055;-79
2022/04/30 09:27:51;;;;;;;10.58;6.65;;;;;;;17.28;46.76;101400.09;1701245;82;21004;-78
2022/04/30 09:30:29;;;;;;;10.70;6.58;;;;;;;17.36;46.49;101393.94;1719346;82;21102;-79
2022/04/30 09:33:07;;;;;;;10.70;6.97;;;;;;;17.44;45.99;101396.22;1706434;82;22032;-78
2022/04/30 09:38:26;;;;;;;10.43;6.15;;;;;;;17.51;45.38;101396.28;1725138;82;21497;-77
2022/04/30 09:40:56;;;;;;;10.43;6.08;;;;;;;17.46;45.19;101393.47;1722126;82;21056;-76
2022/04/30 09:43:37;;;;;;;11.97;6.72;;;;;;;17.51;45.07;101387.48;1720628;82;21056;-76
2022/04/30 09:46:07;;;;;;;10.18;6.60;;;;;;;17.49;44.34;101383.60;1716872;82;22210;-76
2022/04/30 09:54:07;;;;;;;11.70;6.78;;;;;;;17.44;44.06;101387.41;1715768;82;21212;-84
2022/04/30 09:56:39;;;;;;;10.08;6.00;;;;;;;17.45;44.02;101380.70;1715686;82;21794;-83
2022/04/30 09:59:12;;;;;;;10.13;5.55;;;;;;;17.44;43.26;101379.47;1689684;82;21141;-78
2022/04/30 10:01:42;;;;;;;8.93;5.30;;;;;;;17.46;43.31;101374.48;1688020;84;21035;-78
2022/04/30 10:04:14;;;;;;;8.83;5.42;;;;;;;17.53;43.03;101377.66;1681340;83;21488;-77
2022/04/30 10:06:44;;;;;;;6.95;3.90;;;;;;;17.59;42.86;101376.88;1679510;84;21051;-81
2022/04/30 10:09:18;;;;;;;10.43;4.40;;;;;;;17.64;42.32;101378.45;1682790;83;21058;-78
2022/04/30 10:12:09;;;;;;;6.92;4.70;;;;;;;17.69;42.13;101375.95;1679552;84;21108;-77
2022/04/30 10:15:11;;;;;;;9.35;3.98;;;;;;;17.72;41.85;101377.12;1681985;83;20988;-77
2022/04/30 10:17:42;;;;;;;8.58;4.20;;;;;;;17.78;41.61;101368.87;1679709;83;21252;-85
2022/04/30 10:22:53;;;;;;;6.78;3.62;;;;;;;18.20;41.64;101359.59;1707062;82;21047;-76
2022/04/30 10:25:44;;;;;;;4.85;3.00;;;;;;;18.40;41.45;101356.33;1732980;82;21904;-76
2022/04/30 10:28:21;;;;;;;5.37;3.12;;;;;;;18.59;40.78;101348.20;1710081;82;21036;-77
2022/04/30 10:31:06;;;;;;;5.70;3.17;;;;;;;18.79;40.76;101352.44;1729348;82;21048;-85
2022/04/30 10:33:35;;;;;;;8.23;3.80;;;;;;;18.99;40.43;101350.00;1722837;82;21175;-78
2022/04/30 10:36:10;;;;;;;6.60;3.90;;;;;;;19.20;39.74;101345.23;1725784;82;20999;-77
2022/04/30 10:38:38;;;;;;;7.60;3.77;;;;;;;19.29;39.74;101345.56;1702237;83;21135;-85
2022/04/30 10:41:09;;;;;;;7.97;4.65;;;;;;;19.55;39.38;101342.69;1699051;83;20996;-84
2022/04/30 10:43:39;;;;;;;4.80;3.50;;;;;;;19.74;39.18;101336.30;1700637;84;21123;-85
2022/04/30 10:46:23;;;;;;;6.35;3.67;;;;;;;19.95;38.89;101335.00;1693772;84;21005;-77
2022/04/30 10:48:50;;;;;;;9.85;5.20;;;;;;;20.22;39.15;101334.22;1691545;83;21023;-78
2022/04/30 10:51:40;;;;;;;6.70;5.20;;;;;;;20.33;38.45;101337.54;1700361;83;21116;-87
2022/04/30 10:54:16;;;;;;;7.00;4.08;;;;;;;20.41;38.48;101335.25;1704709;83;21008;-78
2022/04/30 10:56:43;;;;;;;5.95;4.10;;;;;;;20.49;37.95;101326.30;1700207;84;21532;-83
2022/04/30 10:59:13;;;;;;;7.53;4.00;;;;;;;20.56;37.87;101324.12;1703748;84;21060;-78
2022/04/30 11:01:45;;;;;;;6.72;3.80;;;;;;;20.54;37.75;101328.23;1701404;83;21786;-77
2022/04/30 11:04:17;;;;;;;5.50;4.03;;;;;;;20.45;38.10;101330.97;1635527;86;21134;-80
2022/04/30 11:06:53;;;;;;;9.95;4.67;;;;;;;20.44;37.64;101327.06;1694455;83;21080;-78
2022/04/30 11:09:19;;;;;;;6.50;3.42;;;;;;;20.39;37.48;101330.48;1639351;86;20997;-77
2022/04/30 11:11:49;;;;;;;9.13;4.47;;;;;;;20.33;37.43;101328.22;1654708;85;21662;-78
2022/04/30 11:14:17;;;;;;;7.28;4.47;;;;;;;20.26;37.03;101319.30;1696812;83;21071;-78
2022/04/30 11:16:49;;;;;;;5.83;3.87;;;;;;;20.13;36.92;101315.69;1673280;83;21119;-80
2022/04/30 11:19:23;;;;;;;8.03;4.40;;;;;;;19.98;36.83;101317.52;1698856;83;21020;-77
2022/04/30 11:21:53;;;;;;;6.60;4.15;;;;;;;19.90;36.76;101313.59;1695073;83;21567;-79
2022/04/30 11:24:32;;;;;;;7.33;4.30;;;;;;;19.90;36.62;101310.92;1695283;84;21111;-79
2022/04/30 11:27:05;;;;;;;7.55;3.77;;;;;;;19.82;36.36;101302.11;1704666;84;21501;-77
2022/04/30 11:29:34;;;;;;;5.75;3.40;;;;;;;19.82;36.65;101301.63;1699019;83;21114;-76
2022/04/30 11:32:02;;;;;;;6.70;3.75;;;;;;;19.91;36.80;101304.67;1669562;84;21011;-76
2022/04/30 11:34:29;;;;;;;8.15;3.90;;;;;;;20.01;36.58;101308.48;1695016;84;21021;-76
2022/04/30 11:37:00;;;;;;;7.75;4.03;;;;;;;20.11;36.46;101300.77;1694022;83;21075;-76
2022/04/30 11:39:28;;;;;;;5.72;3.42;;;;;;;20.24;36.12;101305.22;1694070;83;21564;-77
2022/04/30 11:41:57;;;;;;;4.85;3.12;;;;;;;20.28;36.16;101297.89;1692411;84;21962;-76
2022/04/30 11:44:27;;;;;;;6.60;3.47;;;;;;;20.49;36.18;101301.00;1689622;83;21038;-79
2022/04/30 11:46:55;;;;;;;5.45;3.30;;;;;;;20.58;35.95;101304.42;1699897;83;21047;-77
2022/04/30 11:49:27;;;;;;;6.42;3.60;;;;;;;20.61;35.64;101298.89;1693913;83;21028;-76
2022/04/30 11:51:58;;;;;;;7.28;3.75;;;;;;;20.60;35.34;101298.53;1645924;86;21040;-77
2022/04/30 11:54:28;;;;;;;8.73;4.30;;;;;;;20.67;35.08;101289.20;1695253;83;21113;-79
2022/04/30 11:57:02;;;;;;;5.92;2.87;;;;;;;20.72;35.42;101293.72;1693527;83;27398;-77
2022/04/30 11:59:31;;;;;;;6.47;2.42;;;;;;;20.75;35.08;101295.81;1665133;85;21048;-83
2022/04/30 12:02:03;;;;;;;;;;;;;;;20.81;34.38;101295.41;1632882;86;21064;-76
2022/04/30 12:04:41;;;;;;;4.62;2.87;;;;;;;20.79;33.68;101291.52;1696406;83;20491;-76
2022/04/30 12:07:10;;;;;;;4.83;2.52;;;;;;;20.69;33.84;101287.27;1666243;85;21172;-76
2022/04/30 12:09:40;;;;;;;7.30;5.12;;;;;;;20.77;33.63;101281.92;1688980;84;21563;-80